Time;durP1;ratioP1;P1;durP2;ratioP2;P2;SDS_P1;SDS_P2;PMS_P1;PMS_P2;Temp;Humidity;BMP_temperature;BMP_pressure;BME280_temperature;BME280_humidity;BME280_pressure;Samples;Min_cycle;Max_cycle;Signal;HPM_P1;HPM_P2
2023/12/26 00:01:54;;;;;;;;;4.25;2.00;;;;;12.78;60.89;100940.94;5034113;28;69986;-67
2023/12/26 00:04:20;;;;;;;;;2.00;1.50;;;;;12.78;60.64;100946.19;5040798;28;45822;-68
2023/12/26 00:06:46;;;;;;;;;3.00;1.00;;;;;12.77;60.31;100936.59;5021826;28;45548;-68
2023/12/26 00:09:12;;;;;;;;;2.50;1.00;;;;;12.75;60.52;100936.66;5026284;28;45223;-68
2023/12/26 00:11:42;;;;;;;;;2.25;1.00;;;;;12.75;60.11;100936.66;5029488;28;45270;-67
2023/12/26 00:14:07;;;;;;;;;2.75;2.00;;;;;12.75;60.24;100947.16;5031019;28;45322;-67
2023/12/26 00:16:33;;;;;;;;;3.50;1.00;;;;;12.71;59.68;100927.13;5039338;28;69419;-67
2023/12/26 00:18:58;;;;;;;;;2.75;2.00;;;;;12.73;59.93;100935.84;5012877;28;45784;-67
2023/12/26 00:21:23;;;;;;;;;2.00;2.00;;;;;12.73;60.25;100927.97;4997818;28;61416;-67
2023/12/26 00:23:48;;;;;;;;;3.00;2.00;;;;;12.75;60.57;100928.78;5035969;28;64964;-68
2023/12/26 00:26:14;;;;;;;;;3.00;2.00;;;;;12.76;60.11;100927.00;5035518;28;62114;-68
2023/12/26 00:28:39;;;;;;;;;2.75;1.00;;;;;12.73;60.24;100922.72;5030319;28;73610;-68
2023/12/26 00:31:04;;;;;;;;;4.00;2.50;;;;;12.72;60.72;100921.84;5037689;28;72501;-67
2023/12/26 00:33:30;;;;;;;;;3.00;1.75;;;;;12.72;60.27;100923.63;5035580;28;65655;-68
2023/12/26 00:35:58;;;;;;;;;4.25;2.00;;;;;12.71;60.08;100920.13;5034479;28;45636;-68
2023/12/26 00:38:23;;;;;;;;;2.25;1.25;;;;;12.70;60.36;100928.06;5031359;28;45449;-68
2023/12/26 00:40:49;;;;;;;;;2.00;2.00;;;;;12.68;60.74;100914.97;5023160;28;45330;-67
2023/12/26 00:43:14;;;;;;;;;3.00;1.00;;;;;12.69;60.50;100915.81;5013433;28;45639;-68
2023/12/26 00:45:40;;;;;;;;;5.75;2.00;;;;;12.68;60.33;100917.59;5023172;28;45269;-66
2023/12/26 00:48:05;;;;;;;;;6.00;1.00;;;;;12.67;60.50;100909.78;5036226;28;45338;-66
2023/12/26 00:50:31;;;;;;;;;1.00;1.00;;;;;12.66;60.50;100908.03;5036383;28;47966;-66
2023/12/26 00:52:56;;;;;;;;;3.50;1.00;;;;;12.65;60.61;100911.59;5034943;28;69903;-67
2023/12/26 00:55:23;;;;;;;;;2.00;1.00;;;;;12.63;60.72;100911.63;5039782;28;69352;-67
2023/12/26 00:57:49;;;;;;;;;4.00;2.00;;;;;12.60;60.18;100908.25;5040865;28;45352;-67
2023/12/26 01:00:14;;;;;;;;;5.75;1.00;;;;;12.58;60.54;100900.44;5037165;28;66916;-68
2023/12/26 01:02:40;;;;;;;;;4.00;1.75;;;;;12.56;60.51;100901.41;5039156;28;45425;-66
2023/12/26 01:05:05;;;;;;;;;3.25;2.00;;;;;12.52;60.19;100901.50;5039836;28;67868;-68
2023/12/26 01:07:30;;;;;;;;;2.25;2.25;;;;;12.49;60.77;100904.22;5039556;28;45979;-67
2023/12/26 01:09:56;;;;;;;;;4.00;2.00;;;;;12.45;60.38;100905.22;5015688;28;69061;-67
2023/12/26 01:12:22;;;;;;;;;3.50;2.00;;;;;12.43;60.88;100907.03;5034243;28;45210;-66
2023/12/26 01:14:47;;;;;;;;;2.00;2.00;;;;;12.40;60.64;100899.25;5037892;28;68288;-67
2023/12/26 01:17:12;;;;;;;;;2.25;1.00;;;;;12.38;61.14;100910.69;5027068;28;45469;-67
2023/12/26 01:19:38;;;;;;;;;4.00;1.00;;;;;12.34;60.89;100899.44;5018996;28;57284;-67
2023/12/26 01:22:03;;;;;;;;;3.50;1.50;;;;;12.31;60.67;100903.03;5039964;28;56662;-67
2023/12/26 01:24:28;;;;;;;;;2.00;1.00;;;;;12.31;61.12;100908.28;5004616;28;63822;-67
2023/12/26 01:26:54;;;;;;;;;2.00;1.00;;;;;12.32;61.47;100907.38;5021566;28;71943;-68
2023/12/26 01:29:19;;;;;;;;;5.00;4.00;;;;;12.34;61.16;100909.94;5037250;28;76241;-68
2023/12/26 01:31:44;;;;;;;;;7.00;3.50;;;;;12.35;61.46;100912.50;5032170;28;56035;-68
2023/12/26 01:34:10;;;;;;;;;4.75;2.75;;;;;12.40;61.33;100915.00;5011192;28;45191;-67
2023/12/26 01:36:35;;;;;;;;;2.75;2.50;;;;;12.43;60.92;100914.91;5020116;28;45442;-67
2023/12/26 01:39:01;;;;;;;;;6.75;5.00;;;;;12.45;61.37;100912.25;5004863;28;47167;-68
2023/12/26 01:41:26;;;;;;;;;1.00;1.00;;;;;12.48;60.92;100913.00;5039165;28;45440;-68
2023/12/26 01:43:51;;;;;;;;;4.50;1.75;;;;;12.48;60.99;100910.38;5021487;28;63118;-68
2023/12/26 01:46:17;;;;;;;;;2.25;1.50;;;;;12.51;61.46;100914.66;5034445;28;45438;-67
2023/12/26 01:48:43;;;;;;;;;2.50;2.25;;;;;12.52;61.21;100909.38;5016014;28;72679;-68
2023/12/26 01:51:09;;;;;;;;;3.00;1.00;;;;;12.52;61.14;100904.13;4996978;28;45444;-68
2023/12/26 01:53:38;;;;;;;;;5.75;2.00;;;;;12.52;61.13;100914.63;5034600;28;45442;-67
2023/12/26 01:56:07;;;;;;;;;2.00;1.00;;;;;12.52;61.26;100917.25;5005686;28;45666;-68
2023/12/26 01:58:32;;;;;;;;;2.00;2.00;;;;;12.53;61.78;100920.72;5016423;28;46191;-68
2023/12/26 02:00:58;;;;;;;;;2.25;2.25;;;;;12.53;61.28;100920.72;5004744;28;45580;-67
2023/12/26 02:03:23;;;;;;;;;3.75;1.00;;;;;12.54;61.46;100918.03;5033904;28;45322;-67
2023/12/26 02:05:48;;;;;;;;;2.00;1.25;;;;;12.54;61.32;100914.56;5010733;28;70513;-68
2023/12/26 02:08:14;;;;;;;;;6.00;5.00;;;;;12.55;61.79;100921.53;5035787;28;73805;-67
2023/12/26 02:10:39;;;;;;;;;11.00;7.50;;;;;12.55;61.65;100921.53;5025697;28;45351;-67
2023/12/26 02:13:04;;;;;;;;;2.50;2.00;;;;;12.54;61.71;100923.28;5037613;28;45338;-67
2023/12/26 02:15:30;;;;;;;;;5.00;2.00;;;;;12.51;61.46;100912.88;5010981;28;61066;-67
2023/12/26 02:17:56;;;;;;;;;3.50;2.00;;;;;12.51;61.74;100920.75;5033494;28;55105;-67
2023/12/26 02:20:22;;;;;;;;;5.50;2.00;;;;;12.50;61.63;100929.56;5018250;28;61030;-67
2023/12/26 02:22:47;;;;;;;;;1.25;1.00;;;;;12.49;61.46;100927.84;5042625;28;55468;-67
2023/12/26 02:25:12;;;;;;;;;3.00;2.00;;;;;12.47;61.87;100923.56;5034937;28;71988;-68
2023/12/26 02:27:39;;;;;;;;;1.00;1.00;;;;;12.48;61.46;100925.25;5036644;28;45478;-67
2023/12/26 02:30:06;;;;;;;;;3.75;1.00;;;;;12.45;61.94;100930.63;5026494;28;55015;-69
2023/12/26 02:32:33;;;;;;;;;2.25;1.25;;;;;12.47;61.55;100934.06;5019376;28;45431;-68
2023/12/26 02:35:00;;;;;;;;;5.25;1.00;;;;;12.45;62.04;100938.50;5009519;28;45607;-68
2023/12/26 02:37:26;;;;;;;;;2.00;1.00;;;;;12.43;62.03;100941.16;5032265;28;45986;-70
2023/12/26 02:39:51;;;;;;;;;3.00;2.00;;;;;12.44;62.16;100932.38;5035526;28;45338;-69
2023/12/26 02:42:18;;;;;;;;;11.75;6.25;;;;;12.44;62.16;100923.63;5014405;28;45269;-68
2023/12/26 02:44:43;;;;;;;;;5.25;2.00;;;;;12.43;61.94;100933.28;5026611;28;45386;-68
2023/12/26 02:47:09;;;;;;;;;11.50;7.00;;;;;12.44;61.92;100921.00;5040120;28;74424;-68
2023/12/26 02:49:34;;;;;;;;;4.00;2.00;;;;;12.44;62.15;100926.25;5037329;28;45335;-67
2023/12/26 02:52:00;;;;;;;;;4.25;1.50;;;;;12.42;61.78;100921.06;5043038;28;45257;-68
2023/12/26 02:54:25;;;;;;;;;3.00;1.50;;;;;12.41;62.44;100916.75;5038379;28;45338;-68
2023/12/26 02:56:50;;;;;;;;;4.00;2.00;;;;;12.42;62.21;100923.69;5040665;28;66692;-69
2023/12/26 02:59:16;;;;;;;;;4.25;2.00;;;;;12.42;62.44;100926.31;5041486;28;72236;-68
2023/12/26 03:01:44;;;;;;;;;5.00;1.00;;;;;12.44;62.07;100928.88;5042736;28;45368;-69
2023/12/26 03:04:09;;;;;;;;;2.25;1.25;;;;;12.46;62.59;100922.66;5029565;28;45324;-66
2023/12/26 03:06:34;;;;;;;;;3.00;2.00;;;;;12.44;62.15;100924.50;5037762;28;62348;-68
2023/12/26 03:08:59;;;;;;;;;3.00;1.75;;;;;12.44;62.42;100924.50;5035167;28;60847;-68
2023/12/26 03:11:27;;;;;;;;;3.00;0.75;;;;;12.45;62.14;100928.00;5016813;28;58451;-68
2023/12/26 03:13:52;;;;;;;;;3.75;1.00;;;;;12.44;62.30;100929.75;5049860;28;45351;-68
2023/12/26 03:16:17;;;;;;;;;5.00;2.00;;;;;12.47;62.51;100927.03;5041198;28;75099;-69
2023/12/26 03:18:43;;;;;;;;;9.50;4.50;;;;;12.48;62.43;100926.13;5026761;28;45394;-68
2023/12/26 03:21:08;;;;;;;;;5.50;2.00;;;;;12.48;62.40;100930.50;5041148;28;66872;-69
2023/12/26 03:23:33;;;;;;;;;6.25;1.00;;;;;12.47;62.49;100941.94;5031718;28;65009;-66
2023/12/26 03:25:59;;;;;;;;;4.50;2.50;;;;;12.47;62.36;100937.53;5032110;28;66178;-66
2023/12/26 03:28:24;;;;;;;;;2.50;1.00;;;;;12.46;62.56;100937.56;5035398;28;72245;-67
2023/12/26 03:30:49;;;;;;;;;4.50;1.25;;;;;12.46;62.71;100937.56;5019863;28;52958;-67
2023/12/26 03:33:14;;;;;;;;;3.25;1.00;;;;;12.45;62.58;100939.34;5038658;28;66051;-66
2023/12/26 03:35:40;;;;;;;;;3.50;1.75;;;;;12.43;62.76;100935.03;5008587;28;74031;-67
2023/12/26 03:38:05;;;;;;;;;3.50;1.00;;;;;12.44;62.47;100931.50;5024733;28;45428;-67
2023/12/26 03:40:31;;;;;;;;;2.75;1.00;;;;;12.41;62.94;100929.88;5039302;28;49109;-67
2023/12/26 03:42:56;;;;;;;;;3.75;1.00;;;;;12.42;62.81;100933.34;5018131;28;45678;-67
2023/12/26 03:45:21;;;;;;;;;2.75;1.75;;;;;12.41;62.50;100932.47;5035665;28;46289;-67
2023/12/26 03:47:47;;;;;;;;;4.75;2.00;;;;;12.40;62.86;100925.50;5031873;28;70861;-67
2023/12/26 03:50:12;;;;;;;;;1.50;1.00;;;;;12.40;62.41;100914.16;5024674;28;56925;-67
2023/12/26 03:52:39;;;;;;;;;1.00;1.00;;;;;12.42;62.71;100913.19;5020104;28;48029;-67
2023/12/26 03:55:04;;;;;;;;;8.75;4.00;;;;;12.42;62.88;100917.59;5038060;28;45362;-67
2023/12/26 03:57:30;;;;;;;;;12.25;6.00;;;;;12.42;63.06;100921.06;5040128;28;45384;-67
2023/12/26 03:59:55;;;;;;;;;6.00;2.50;;;;;12.43;63.03;100919.28;5035548;28;45408;-67
2023/12/26 04:02:20;;;;;;;;;4.00;2.00;;;;;12.42;63.22;100926.31;5024403;28;45540;-68
2023/12/26 04:04:46;;;;;;;;;4.25;1.00;;;;;12.43;63.28;100919.28;5016753;28;69076;-68
2023/12/26 04:07:11;;;;;;;;;1.75;1.50;;;;;12.41;63.18;100928.97;5038906;28;45458;-68
2023/12/26 04:09:36;;;;;;;;;2.75;2.00;;;;;12.40;63.19;100930.75;5034975;28;67152;-68
2023/12/26 04:12:02;;;;;;;;;4.00;1.00;;;;;12.39;63.07;100933.44;5038683;28;45236;-68
2023/12/26 04:14:27;;;;;;;;;3.50;2.00;;;;;12.37;63.04;100943.13;5031150;28;45361;-68
2023/12/26 04:16:52;;;;;;;;;2.00;1.25;;;;;12.36;63.11;100937.03;5041137;28;63453;-67
2023/12/26 04:19:18;;;;;;;;;4.50;1.25;;;;;12.34;63.41;100942.31;5036297;28;54698;-68
2023/12/26 04:21:43;;;;;;;;;2.75;1.00;;;;;12.35;63.62;100940.53;5023685;28;45238;-68
2023/12/26 04:24:08;;;;;;;;;1.00;1.00;;;;;12.35;63.54;100948.41;5040493;28;67934;-68
2023/12/26 04:26:36;;;;;;;;;6.00;2.00;;;;;12.33;63.91;100953.69;5018032;28;72569;-68
2023/12/26 04:29:01;;;;;;;;;6.25;1.50;;;;;12.34;63.58;100954.56;5019359;28;45558;-68
2023/12/26 04:31:27;;;;;;;;;4.00;1.00;;;;;12.36;63.53;100950.13;5038586;28;66446;-68
2023/12/26 04:33:52;;;;;;;;;4.50;2.00;;;;;12.33;63.72;100956.31;5031332;28;46028;-68
2023/12/26 04:36:17;;;;;;;;;2.75;1.00;;;;;12.34;63.71;100957.19;5028097;28;72668;-68
2023/12/26 04:38:43;;;;;;;;;4.75;1.00;;;;;12.35;64.09;100964.16;5035486;28;45826;-68
2023/12/26 04:41:11;;;;;;;;;1.50;1.00;;;;;12.35;64.11;100962.38;5023839;28;48463;-68
2023/12/26 04:43:37;;;;;;;;;2.00;2.00;;;;;12.38;63.90;100969.31;5031631;28;46234;-68
2023/12/26 04:46:02;;;;;;;;;2.50;0.75;;;;;12.38;64.19;100966.69;5029652;28;45485;-68
2023/12/26 04:48:28;;;;;;;;;3.00;1.00;;;;;12.38;63.99;100966.69;5032140;28;45330;-68
2023/12/26 04:50:54;;;;;;;;;3.00;1.25;;;;;12.39;64.35;100972.78;5011601;28;67616;-68
2023/12/26 04:53:19;;;;;;;;;3.75;0.25;;;;;12.39;64.35;100973.63;5040671;28;50121;-68
2023/12/26 04:55:45;;;;;;;;;5.00;1.25;;;;;12.40;64.53;100971.91;5028970;28;45357;-68
2023/12/26 04:58:10;;;;;;;;;1.00;1.00;;;;;12.39;64.64;100964.91;5028313;28;69271;-68
2023/12/26 05:00:35;;;;;;;;;6.00;1.25;;;;;12.39;64.33;100968.38;5032405;28;72140;-68
2023/12/26 05:03:00;;;;;;;;;2.75;1.00;;;;;12.38;64.45;100966.69;5013242;28;47279;-68
2023/12/26 05:05:26;;;;;;;;;3.25;1.50;;;;;12.37;64.37;100975.47;5030482;28;69146;-69
2023/12/26 05:07:51;;;;;;;;;3.75;1.25;;;;;12.38;64.62;100961.44;5030197;28;69043;-68
2023/12/26 05:10:17;;;;;;;;;3.25;1.00;;;;;12.41;64.91;100973.59;5001810;28;45438;-68
2023/12/26 05:12:42;;;;;;;;;3.50;1.00;;;;;12.41;64.73;100977.09;5040741;28;46485;-67
2023/12/26 05:15:08;;;;;;;;;2.25;1.50;;;;;12.41;64.54;100977.09;5014879;28;45464;-67
2023/12/26 05:17:33;;;;;;;;;3.00;1.00;;;;;12.40;64.70;100982.41;5033020;28;45283;-68
2023/12/26 05:20:00;;;;;;;;;3.75;0.00;;;;;12.40;64.96;100979.78;5034566;28;68533;-67
2023/12/26 05:22:26;;;;;;;;;1.00;1.00;;;;;12.39;64.81;100986.75;5022128;28;46037;-67
2023/12/26 05:24:51;;;;;;;;;2.00;2.00;;;;;12.40;64.85;100992.91;5017010;28;72406;-67
2023/12/26 05:27:17;;;;;;;;;1.25;1.00;;;;;12.41;65.18;100998.09;5039863;28;64784;-67
2023/12/26 05:29:45;;;;;;;;;6.00;1.75;;;;;12.42;65.16;101004.19;5029831;28;45230;-67
2023/12/26 05:32:10;;;;;;;;;1.25;1.00;;;;;12.44;64.76;100997.97;5028924;28;63801;-67
2023/12/26 05:34:35;;;;;;;;;2.00;2.00;;;;;12.45;65.17;100996.25;5029191;28;45265;-67
2023/12/26 05:37:01;;;;;;;;;4.00;1.00;;;;;12.46;65.00;100995.31;5039971;28;50232;-67
2023/12/26 05:39:26;;;;;;;;;2.75;1.00;;;;;12.47;64.90;101002.31;5036100;28;45368;-67
2023/12/26 05:41:51;;;;;;;;;3.50;2.25;;;;;12.47;64.97;101011.03;5033730;28;69058;-67
2023/12/26 05:44:17;;;;;;;;;5.75;2.00;;;;;12.45;65.02;101014.63;5013889;28;45404;-67
2023/12/26 05:46:45;;;;;;;;;4.75;1.50;;;;;12.43;65.60;101017.28;5028444;28;60757;-67
2023/12/26 05:49:10;;;;;;;;;5.25;2.00;;;;;12.42;65.47;101023.44;5022675;28;45223;-67
2023/12/26 05:51:36;;;;;;;;;8.50;2.00;;;;;12.41;65.55;101034.84;5039595;28;57171;-68
2023/12/26 05:54:01;;;;;;;;;6.00;2.00;;;;;12.43;65.46;101034.78;5034346;28;57553;-67
2023/12/26 05:56:26;;;;;;;;;2.50;1.00;;;;;12.44;65.81;101036.50;5020609;28;60679;-67
2023/12/26 05:58:52;;;;;;;;;3.00;1.50;;;;;12.46;65.27;101040.78;5032625;28;45372;-67
2023/12/26 06:01:18;;;;;;;;;5.00;1.50;;;;;12.48;65.39;101039.00;5031935;28;72237;-67
2023/12/26 06:03:44;;;;;;;;;1.25;1.25;;;;;12.48;65.40;101041.63;5037075;28;45665;-67
2023/12/26 06:06:13;;;;;;;;;4.00;1.00;;;;;12.49;65.49;101045.09;5028777;28;68281;-67
2023/12/26 06:08:42;;;;;;;;;3.50;2.00;;;;;12.50;65.51;101039.81;5030271;28;45619;-67
2023/12/26 06:11:07;;;;;;;;;2.00;1.25;;;;;12.48;65.63;101043.38;5018976;28;47479;-67
2023/12/26 06:13:33;;;;;;;;;1.00;1.00;;;;;12.49;65.76;101039.84;5016816;28;45443;-67
2023/12/26 06:15:58;;;;;;;;;4.00;1.00;;;;;12.49;65.73;101051.22;5021756;28;47414;-67
2023/12/26 06:18:24;;;;;;;;;2.00;2.00;;;;;12.47;65.97;101054.78;5011586;28;74075;-67
2023/12/26 06:20:49;;;;;;;;;4.00;1.00;;;;;12.49;66.05;101045.09;5015606;28;46066;-67
2023/12/26 06:23:15;;;;;;;;;3.50;2.00;;;;;12.51;66.45;101049.38;5029345;28;45468;-68
2023/12/26 06:25:40;;;;;;;;;1.75;1.75;;;;;12.48;66.57;101035.50;5022340;28;45211;-67
2023/12/26 06:28:05;;;;;;;;;4.25;2.00;;;;;12.45;66.95;101038.25;5032890;28;45404;-67
2023/12/26 06:30:31;;;;;;;;;3.75;1.00;;;;;12.45;67.27;101041.72;5036372;28;47243;-67
2023/12/26 06:32:56;;;;;;;;;3.00;1.00;;;;;12.44;67.41;101045.22;5031860;28;66854;-67
2023/12/26 06:35:21;;;;;;;;;3.25;1.25;;;;;12.45;67.06;101038.25;5020715;28;64408;-67
2023/12/26 06:37:47;;;;;;;;;1.00;1.00;;;;;12.45;67.14;101040.88;5020581;28;63069;-67
2023/12/26 06:40:12;;;;;;;;;4.00;1.00;;;;;12.45;67.63;101046.13;5023771;28;61262;-67
2023/12/26 06:42:37;;;;;;;;;4.75;2.00;;;;;12.44;67.51;101047.84;5017295;28;45469;-66
2023/12/26 06:45:03;;;;;;;;;3.00;1.00;;;;;12.44;67.54;101054.88;5027178;28;64486;-67
2023/12/26 06:47:28;;;;;;;;;7.25;2.00;;;;;12.43;67.60;101059.28;5034538;28;45400;-68
2023/12/26 06:49:53;;;;;;;;;3.00;1.00;;;;;12.43;67.84;101066.28;5020465;28;75801;-67
2023/12/26 06:52:19;;;;;;;;;5.00;2.50;;;;;12.39;67.60;101069.91;5032722;28;45447;-68
2023/12/26 06:54:44;;;;;;;;;5.00;2.75;;;;;12.40;68.19;101069.00;5033904;28;45411;-67
2023/12/26 06:57:15;;;;;;;;;5.50;2.00;;;;;12.37;68.03;101077.81;5030869;28;45267;-67
2023/12/26 06:59:46;;;;;;;;;2.75;1.00;;;;;12.36;68.25;101078.75;5032737;28;45344;-67
2023/12/26 07:02:11;;;;;;;;;4.75;1.75;;;;;12.36;67.75;101078.75;5019894;28;45391;-67
2023/12/26 07:04:36;;;;;;;;;7.00;1.00;;;;;12.37;68.12;101079.59;5033102;28;45294;-67
2023/12/26 07:07:02;;;;;;;;;8.00;3.00;;;;;12.36;67.98;101078.75;5020178;28;72973;-67
2023/12/26 07:09:27;;;;;;;;;6.00;2.00;;;;;12.37;67.97;101075.19;5033263;28;46193;-67
2023/12/26 07:11:52;;;;;;;;;2.00;2.00;;;;;12.39;68.08;101083.88;5026575;28;55427;-67
2023/12/26 07:14:18;;;;;;;;;3.00;2.00;;;;;12.39;68.52;101099.63;5033246;28;45345;-67
2023/12/26 07:16:44;;;;;;;;;2.00;1.00;;;;;12.38;68.26;101094.41;5038225;28;45850;-67
2023/12/26 07:19:09;;;;;;;;;3.75;2.25;;;;;12.37;68.22;101101.44;5029546;28;46704;-67
2023/12/26 07:21:34;;;;;;;;;1.75;1.75;;;;;12.36;68.30;101091.84;5016038;28;54849;-67
2023/12/26 07:24:00;;;;;;;;;5.00;2.25;;;;;12.37;68.44;101113.72;5020229;28;71652;-67
2023/12/26 07:26:25;;;;;;;;;6.25;3.00;;;;;12.38;68.58;101126.78;5015962;28;45630;-67
2023/12/26 07:28:50;;;;;;;;;3.00;2.25;;;;;12.39;68.71;101125.03;5029461;28;46329;-67
2023/12/26 07:31:22;;;;;;;;;4.00;2.00;;;;;12.42;68.41;101131.03;5033970;28;52232;-67
2023/12/26 07:33:48;;;;;;;;;4.00;2.00;;;;;12.42;68.26;101124.94;5036908;28;45238;-67
2023/12/26 07:36:14;;;;;;;;;5.00;1.25;;;;;12.43;68.15;101119.66;5021325;28;45896;-67
2023/12/26 07:38:40;;;;;;;;;3.25;2.00;;;;;12.41;68.69;101134.59;5034683;28;45878;-67
2023/12/26 07:41:05;;;;;;;;;2.50;1.75;;;;;12.40;68.13;101156.47;5000934;28;72940;-67
2023/12/26 07:43:30;;;;;;;;;8.75;3.00;;;;;12.41;68.24;101160.84;5037091;28;45292;-67
2023/12/26 07:45:56;;;;;;;;;5.50;1.00;;;;;12.42;68.37;101152.03;5031013;28;45451;-67
2023/12/26 07:48:21;;;;;;;;;3.25;1.00;;;;;12.43;68.56;101161.66;5028907;28;68338;-68
2023/12/26 07:50:47;;;;;;;;;3.00;2.00;;;;;12.41;68.12;101167.81;5040773;28;73362;-67
2023/12/26 07:53:12;;;;;;;;;4.25;2.00;;;;;12.38;68.40;101171.41;5042052;28;45355;-68
2023/12/26 07:55:37;;;;;;;;;2.50;2.00;;;;;12.37;68.71;101174.94;5029870;28;68724;-67
2023/12/26 07:58:03;;;;;;;;;4.50;2.50;;;;;12.38;68.71;101181.03;5017297;28;65021;-67
2023/12/26 08:00:28;;;;;;;;;4.50;1.00;;;;;12.38;68.44;101179.28;5040108;28;45372;-67
2023/12/26 08:02:54;;;;;;;;;6.00;2.00;;;;;12.39;68.45;101183.63;5035176;28;68386;-67
2023/12/26 08:05:19;;;;;;;;;4.25;2.25;;;;;12.40;68.61;101182.72;5030037;28;45272;-67
2023/12/26 08:07:45;;;;;;;;;3.00;2.00;;;;;12.40;68.35;101189.75;5037834;28;45717;-68
2023/12/26 08:10:10;;;;;;;;;2.75;2.00;;;;;12.41;68.78;101202.84;5023022;28;45336;-68
2023/12/26 08:12:36;;;;;;;;;3.50;1.00;;;;;12.42;68.57;101204.53;5027621;28;45556;-68
2023/12/26 08:15:01;;;;;;;;;9.75;2.00;;;;;12.43;68.57;101205.38;5038089;28;69728;-68
2023/12/26 08:17:26;;;;;;;;;3.25;2.00;;;;;12.44;68.83;101212.38;5018900;28;45999;-68
2023/12/26 08:19:52;;;;;;;;;3.50;2.00;;;;;12.44;68.43;101218.47;5010651;28;45369;-68
2023/12/26 08:22:17;;;;;;;;;2.75;2.00;;;;;12.46;68.40;101226.31;5035841;28;57884;-68
2023/12/26 08:24:43;;;;;;;;;3.25;1.25;;;;;12.46;68.82;101221.06;5018759;28;45322;-68
2023/12/26 08:27:08;;;;;;;;;1.00;1.00;;;;;12.47;68.96;101228.91;5035699;28;57817;-68
2023/12/26 08:29:33;;;;;;;;;3.25;2.25;;;;;12.48;68.70;101227.13;5036607;28;72224;-69
2023/12/26 08:31:59;;;;;;;;;4.75;2.00;;;;;12.47;68.45;101236.78;5039275;28;45609;-68
2023/12/26 08:34:25;;;;;;;;;2.00;1.00;;;;;12.48;68.75;101241.13;5014290;28;45614;-68
2023/12/26 08:36:51;;;;;;;;;2.25;2.00;;;;;12.49;68.79;101236.75;5016933;28;46230;-68
2023/12/26 08:39:16;;;;;;;;;3.00;1.00;;;;;12.49;68.56;101234.97;5014748;28;45437;-68
2023/12/26 08:41:42;;;;;;;;;5.25;2.00;;;;;12.50;68.90;101249.81;5040040;28;67383;-68
2023/12/26 08:44:08;;;;;;;;;2.75;2.00;;;;;12.52;69.22;101252.41;5004024;28;46090;-68
2023/12/26 08:46:33;;;;;;;;;2.00;2.00;;;;;12.52;69.24;101247.16;5037876;28;45468;-68
2023/12/26 08:48:58;;;;;;;;;3.50;1.00;;;;;12.52;69.18;101248.00;5037511;28;53299;-68
2023/12/26 08:51:24;;;;;;;;;3.75;1.50;;;;;12.51;69.16;101238.41;5035325;28;45312;-68
2023/12/26 08:53:49;;;;;;;;;4.00;1.00;;;;;12.53;69.12;101244.47;5029785;28;45404;-69
2023/12/26 08:56:14;;;;;;;;;1.75;1.00;;;;;12.53;69.40;101246.25;5041133;28;60565;-68
2023/12/26 08:58:40;;;;;;;;;3.00;1.25;;;;;12.53;69.39;101254.97;5040601;28;45297;-71
2023/12/26 09:01:10;;;;;;;;;7.75;4.75;;;;;12.52;69.41;101255.03;5036800;28;69426;-69
2023/12/26 09:03:35;;;;;;;;;5.00;4.00;;;;;12.48;69.73;101259.50;5004301;28;45820;-69
2023/12/26 09:06:01;;;;;;;;;4.50;2.25;;;;;12.47;69.61;101262.19;5027313;28;74464;-68
2023/12/26 09:08:26;;;;;;;;;4.25;3.00;;;;;12.46;70.55;101270.94;5014063;28;45444;-69
2023/12/26 09:10:51;;;;;;;;;4.00;2.00;;;;;12.46;70.45;101277.03;5028691;28;47502;-69
2023/12/26 09:13:20;;;;;;;;;1.00;1.00;;;;;12.48;70.82;101291.00;5039818;28;64938;-68
2023/12/26 09:15:46;;;;;;;;;2.75;2.00;;;;;12.48;70.81;101298.88;5031479;28;46514;-67
2023/12/26 09:18:12;;;;;;;;;2.00;1.00;;;;;12.49;70.43;101302.38;5036605;28;46462;-67
2023/12/26 09:20:37;;;;;;;;;3.50;1.75;;;;;12.48;70.98;101300.63;5032773;28;45419;-68
2023/12/26 09:23:03;;;;;;;;;5.25;2.25;;;;;12.49;70.97;101310.25;5039546;28;71192;-68
2023/12/26 09:25:28;;;;;;;;;2.50;1.25;;;;;12.50;71.08;101312.84;5005629;28;49959;-68
2023/12/26 09:27:53;;;;;;;;;2.75;2.00;;;;;12.50;71.23;101315.47;5034611;28;58182;-68
2023/12/26 09:30:19;;;;;;;;;5.25;2.00;;;;;12.52;70.96;101313.66;5021154;28;60860;-68
2023/12/26 09:32:44;;;;;;;;;4.75;2.00;;;;;12.54;70.78;101319.72;5040401;28;45576;-68
2023/12/26 09:35:10;;;;;;;;;6.00;2.00;;;;;12.57;70.60;101320.53;5022173;28;47691;-68
2023/12/26 09:37:38;;;;;;;;;2.00;2.00;;;;;12.57;70.81;101325.78;5038739;28;45226;-68
2023/12/26 09:40:06;;;;;;;;;2.25;1.75;;;;;12.59;71.12;101326.59;5001178;28;45630;-68
2023/12/26 09:42:31;;;;;;;;;2.50;2.00;;;;;12.59;71.04;101331.84;5017613;28;45579;-67
2023/12/26 09:44:58;;;;;;;;;5.50;2.75;;;;;12.59;71.26;101342.34;5034101;28;46559;-66
2023/12/26 09:47:25;;;;;;;;;6.50;2.00;;;;;12.59;71.04;101343.25;5020970;28;50008;-68
2023/12/26 09:49:50;;;;;;;;;5.00;3.00;;;;;12.62;71.18;101355.41;5039742;28;50294;-69
2023/12/26 09:52:16;;;;;;;;;2.75;2.00;;;;;12.65;71.23;101363.22;5029301;28;45277;-68
2023/12/26 09:54:43;;;;;;;;;5.00;2.00;;;;;12.67;71.50;101357.00;5036637;28;45325;-67
2023/12/26 09:57:09;;;;;;;;;4.25;1.50;;;;;12.70;71.15;101356.09;5015659;28;45366;-67
2023/12/26 09:59:37;;;;;;;;;6.75;2.50;;;;;12.71;71.36;101360.41;5021905;28;45357;-68
2023/12/26 10:02:03;;;;;;;;;3.00;2.00;;;;;12.70;71.37;101358.72;5006224;28;45239;-68
2023/12/26 10:04:28;;;;;;;;;4.25;2.00;;;;;12.71;71.28;101360.41;5041050;28;46964;-68
2023/12/26 10:06:54;;;;;;;;;4.00;2.50;;;;;12.72;71.32;101376.16;5039831;28;45225;-68
2023/12/26 10:09:19;;;;;;;;;5.75;3.00;;;;;12.73;71.18;101387.53;5039585;28;53846;-67
2023/12/26 10:11:45;;;;;;;;;7.00;3.00;;;;;12.77;71.37;101385.69;5004637;28;45494;-67
2023/12/26 10:14:10;;;;;;;;;3.00;3.00;;;;;12.77;71.42;101381.28;5030663;28;45282;-68
2023/12/26 10:16:36;;;;;;;;;2.75;2.25;;;;;12.80;71.40;101388.22;5016346;28;45318;-68
2023/12/26 10:19:01;;;;;;;;;3.25;2.00;;;;;12.82;71.41;101394.28;5026100;28;45329;-68
2023/12/26 10:21:29;;;;;;;;;4.00;1.50;;;;;12.82;71.24;101387.28;5026171;28;73401;-69
2023/12/26 10:23:55;;;;;;;;;4.75;2.00;;;;;12.83;71.24;101388.16;5029172;28;46189;-68
2023/12/26 10:26:21;;;;;;;;;3.25;2.25;;;;;12.86;70.92;101380.19;5039225;28;51950;-69
2023/12/26 10:28:47;;;;;;;;;4.00;2.75;;;;;12.86;70.75;101375.78;5035002;28;45322;-68
2023/12/26 10:31:13;;;;;;;;;5.00;4.00;;;;;12.89;70.79;101385.34;5016618;28;45517;-69
2023/12/26 10:33:39;;;;;;;;;9.00;3.50;;;;;12.93;70.99;101391.41;5033943;28;45360;-69
2023/12/26 10:36:06;;;;;;;;;10.75;5.25;;;;;12.94;70.84;101399.22;5003790;28;45442;-68
2023/12/26 10:38:34;;;;;;;;;18.25;11.75;;;;;12.94;71.09;101393.13;5015083;28;45319;-69
2023/12/26 10:41:05;;;;;;;;;23.00;16.00;;;;;12.98;70.93;101397.38;5039131;28;45504;-68
2023/12/26 10:43:32;;;;;;;;;23.25;15.00;;;;;13.01;70.85;101399.94;5021978;28;45477;-68
2023/12/26 10:45:58;;;;;;;;;12.50;6.25;;;;;13.03;70.44;101398.13;5014038;28;45348;-68
2023/12/26 10:48:43;;;;;;;;;5.25;4.50;;;;;13.03;70.64;101388.50;4998655;28;45322;-68
2023/12/26 10:51:09;;;;;;;;;7.25;4.00;;;;;13.06;70.64;101384.91;5036746;28;45389;-67
2023/12/26 10:53:49;;;;;;;;;5.50;3.00;;;;;13.09;70.48;101388.31;5016371;28;54130;-69
2023/12/26 10:56:15;;;;;;;;;6.50;3.50;;;;;13.14;70.52;101403.09;5021412;28;45700;-67
2023/12/26 10:58:41;;;;;;;;;3.50;2.00;;;;;13.15;70.26;101389.91;5019627;28;45397;-68
2023/12/26 11:01:13;;;;;;;;;4.00;3.50;;;;;13.16;70.54;101389.03;5020579;28;45590;-69
2023/12/26 13:51:51;;;;;;;;;4.50;4.00;;;;;13.34;70.93;101369.28;5033487;28;45239;-68
2023/12/26 13:54:16;;;;;;;;;5.50;4.75;;;;;13.32;71.18;101365.84;5032711;28;45332;-68
2023/12/26 13:56:42;;;;;;;;;7.50;5.00;;;;;13.32;71.41;101364.97;5028230;28;63038;-68
2023/12/26 13:59:07;;;;;;;;;4.00;4.00;;;;;13.32;71.74;101365.84;5032552;28;46239;-68
2023/12/26 14:01:32;;;;;;;;;10.00;5.00;;;;;13.30;71.68;101367.63;5021632;28;47512;-68
2023/12/26 14:03:58;;;;;;;;;10.00;7.00;;;;;13.28;71.82;101362.41;5020776;28;70697;-68
2023/12/26 14:06:23;;;;;;;;;3.50;2.25;;;;;13.27;71.39;101360.66;5031915;28;64060;-68